sensor_id;sensor_type;location;lat;lon;timestamp;P1;durP1;ratioP1;P2;durP2;ratioP2
73557;SDS011;61829;53.286;10.434;2023-03-03T00:01:21;22.75;;;11.30;;
73557;SDS011;61829;53.286;10.434;2023-03-03T00:03:50;23.02;;;11.75;;
73557;SDS011;61829;53.286;10.434;2023-03-03T00:06:20;25.52;;;12.43;;
73557;SDS011;61829;53.286;10.434;2023-03-03T00:08:47;26.35;;;11.70;;
73557;SDS011;61829;53.286;10.434;2023-03-03T00:11:13;22.20;;;10.38;;
73557;SDS011;61829;53.286;10.434;2023-03-03T00:13:49;26.73;;;11.50;;
73557;SDS011;61829;53.286;10.434;2023-03-03T00:16:22;25.52;;;11.30;;
73557;SDS011;61829;53.286;10.434;2023-03-03T00:19:11;25.33;;;11.05;;
73557;SDS011;61829;53.286;10.434;2023-03-03T00:21:46;28.30;;;12.05;;
73557;SDS011;61829;53.286;10.434;2023-03-03T00:26:55;24.08;;;11.27;;
73557;SDS011;61829;53.286;10.434;2023-03-03T00:29:29;24.20;;;10.55;;
73557;SDS011;61829;53.286;10.434;2023-03-03T00:34:36;24.23;;;11.00;;
73557;SDS011;61829;53.286;10.434;2023-03-03T00:37:02;23.48;;;10.80;;
73557;SDS011;61829;53.286;10.434;2023-03-03T00:39:43;25.85;;;11.38;;
73557;SDS011;61829;53.286;10.434;2023-03-03T00:42:13;23.15;;;10.68;;
73557;SDS011;61829;53.286;10.434;2023-03-03T00:47:36;27.63;;;12.20;;
73557;SDS011;61829;53.286;10.434;2023-03-03T00:52:33;24.30;;;10.98;;
73557;SDS011;61829;53.286;10.434;2023-03-03T00:55:03;28.35;;;11.82;;
73557;SDS011;61829;53.286;10.434;2023-03-03T00:57:30;28.80;;;12.70;;
73557;SDS011;61829;53.286;10.434;2023-03-03T00:59:59;28.88;;;12.25;;
73557;SDS011;61829;53.286;10.434;2023-03-03T01:02:26;31.55;;;13.32;;
73557;SDS011;61829;53.286;10.434;2023-03-03T01:04:52;35.60;;;14.00;;
73557;SDS011;61829;53.286;10.434;2023-03-03T01:07:21;36.05;;;13.95;;
73557;SDS011;61829;53.286;10.434;2023-03-03T01:09:47;32.58;;;12.90;;
73557;SDS011;61829;53.286;10.434;2023-03-03T01:12:16;41.10;;;14.90;;
73557;SDS011;61829;53.286;10.434;2023-03-03T01:14:45;38.53;;;15.10;;
73557;SDS011;61829;53.286;10.434;2023-03-03T01:17:14;38.88;;;16.17;;
73557;SDS011;61829;53.286;10.434;2023-03-03T01:19:39;40.63;;;15.75;;
73557;SDS011;61829;53.286;10.434;2023-03-03T01:22:05;38.53;;;14.65;;
73557;SDS011;61829;53.286;10.434;2023-03-03T01:24:31;43.22;;;16.02;;
73557;SDS011;61829;53.286;10.434;2023-03-03T01:26:57;44.45;;;15.40;;
73557;SDS011;61829;53.286;10.434;2023-03-03T01:29:22;40.17;;;14.13;;
73557;SDS011;61829;53.286;10.434;2023-03-03T01:31:49;41.55;;;15.95;;
73557;SDS011;61829;53.286;10.434;2023-03-03T01:34:14;40.03;;;15.75;;
73557;SDS011;61829;53.286;10.434;2023-03-03T01:36:40;46.25;;;15.20;;
73557;SDS011;61829;53.286;10.434;2023-03-03T01:39:06;41.50;;;15.98;;
73557;SDS011;61829;53.286;10.434;2023-03-03T01:41:32;49.58;;;16.73;;
73557;SDS011;61829;53.286;10.434;2023-03-03T01:44:01;50.85;;;18.17;;
73557;SDS011;61829;53.286;10.434;2023-03-03T01:46:37;55.35;;;18.33;;
73557;SDS011;61829;53.286;10.434;2023-03-03T01:49:16;55.05;;;16.73;;
73557;SDS011;61829;53.286;10.434;2023-03-03T01:51:54;57.78;;;18.52;;
73557;SDS011;61829;53.286;10.434;2023-03-03T01:54:27;56.55;;;19.30;;
73557;SDS011;61829;53.286;10.434;2023-03-03T01:56:59;60.92;;;20.25;;
73557;SDS011;61829;53.286;10.434;2023-03-03T01:59:28;49.90;;;17.80;;
73557;SDS011;61829;53.286;10.434;2023-03-03T02:01:58;60.30;;;19.10;;
73557;SDS011;61829;53.286;10.434;2023-03-03T02:04:23;66.60;;;20.35;;
73557;SDS011;61829;53.286;10.434;2023-03-03T02:06:53;60.30;;;18.85;;
73557;SDS011;61829;53.286;10.434;2023-03-03T02:12:49;62.92;;;18.23;;
73557;SDS011;61829;53.286;10.434;2023-03-03T02:17:46;68.50;;;20.35;;
73557;SDS011;61829;53.286;10.434;2023-03-03T02:20:15;59.47;;;20.77;;
73557;SDS011;61829;53.286;10.434;2023-03-03T02:28:28;62.85;;;19.55;;
73557;SDS011;61829;53.286;10.434;2023-03-03T02:30:56;57.92;;;18.33;;
73557;SDS011;61829;53.286;10.434;2023-03-03T02:33:24;68.68;;;21.95;;
73557;SDS011;61829;53.286;10.434;2023-03-03T02:35:50;59.85;;;19.02;;
73557;SDS011;61829;53.286;10.434;2023-03-03T02:43:32;61.92;;;19.05;;
73557;SDS011;61829;53.286;10.434;2023-03-03T02:46:04;56.80;;;17.75;;
73557;SDS011;61829;53.286;10.434;2023-03-03T02:48:31;60.53;;;18.17;;
73557;SDS011;61829;53.286;10.434;2023-03-03T02:50:57;49.92;;;16.98;;
73557;SDS011;61829;53.286;10.434;2023-03-03T02:53:23;49.75;;;16.83;;
73557;SDS011;61829;53.286;10.434;2023-03-03T02:55:48;55.92;;;16.98;;
73557;SDS011;61829;53.286;10.434;2023-03-03T02:58:14;47.70;;;18.05;;
73557;SDS011;61829;53.286;10.434;2023-03-03T03:00:40;45.22;;;16.17;;
73557;SDS011;61829;53.286;10.434;2023-03-03T03:03:07;51.97;;;16.98;;
73557;SDS011;61829;53.286;10.434;2023-03-03T03:05:32;53.20;;;17.48;;
73557;SDS011;61829;53.286;10.434;2023-03-03T03:07:58;49.55;;;16.95;;
73557;SDS011;61829;53.286;10.434;2023-03-03T03:10:24;49.80;;;15.48;;
73557;SDS011;61829;53.286;10.434;2023-03-03T03:12:50;47.15;;;16.52;;
73557;SDS011;61829;53.286;10.434;2023-03-03T03:15:16;55.97;;;18.17;;
73557;SDS011;61829;53.286;10.434;2023-03-03T03:17:42;51.30;;;16.42;;
73557;SDS011;61829;53.286;10.434;2023-03-03T03:20:08;58.95;;;17.45;;
73557;SDS011;61829;53.286;10.434;2023-03-03T03:22:34;49.55;;;16.60;;
73557;SDS011;61829;53.286;10.434;2023-03-03T03:25:00;50.10;;;16.65;;
73557;SDS011;61829;53.286;10.434;2023-03-03T03:27:26;53.70;;;16.73;;
73557;SDS011;61829;53.286;10.434;2023-03-03T03:29:51;48.10;;;16.75;;
73557;SDS011;61829;53.286;10.434;2023-03-03T03:32:17;57.67;;;17.38;;
73557;SDS011;61829;53.286;10.434;2023-03-03T03:34:43;49.17;;;16.38;;
73557;SDS011;61829;53.286;10.434;2023-03-03T03:37:09;49.28;;;16.73;;
73557;SDS011;61829;53.286;10.434;2023-03-03T03:39:35;49.90;;;16.25;;
73557;SDS011;61829;53.286;10.434;2023-03-03T03:42:01;47.25;;;17.20;;
73557;SDS011;61829;53.286;10.434;2023-03-03T03:44:27;52.17;;;16.33;;
73557;SDS011;61829;53.286;10.434;2023-03-03T03:46:53;47.95;;;16.17;;
73557;SDS011;61829;53.286;10.434;2023-03-03T03:49:18;55.03;;;16.38;;
73557;SDS011;61829;53.286;10.434;2023-03-03T03:51:44;50.80;;;16.88;;
73557;SDS011;61829;53.286;10.434;2023-03-03T03:54:10;47.30;;;16.08;;
73557;SDS011;61829;53.286;10.434;2023-03-03T03:56:36;48.40;;;16.70;;
73557;SDS011;61829;53.286;10.434;2023-03-03T03:59:02;55.40;;;17.60;;
73557;SDS011;61829;53.286;10.434;2023-03-03T04:01:30;54.47;;;16.52;;
73557;SDS011;61829;53.286;10.434;2023-03-03T04:03:56;49.78;;;16.58;;
73557;SDS011;61829;53.286;10.434;2023-03-03T04:06:22;52.13;;;17.58;;
73557;SDS011;61829;53.286;10.434;2023-03-03T04:08:47;44.45;;;16.10;;
73557;SDS011;61829;53.286;10.434;2023-03-03T04:11:14;49.92;;;16.63;;
73557;SDS011;61829;53.286;10.434;2023-03-03T04:13:39;52.53;;;16.92;;
73557;SDS011;61829;53.286;10.434;2023-03-03T04:16:05;51.58;;;16.13;;
73557;SDS011;61829;53.286;10.434;2023-03-03T04:18:31;46.15;;;16.45;;
73557;SDS011;61829;53.286;10.434;2023-03-03T04:20:57;45.72;;;15.95;;
73557;SDS011;61829;53.286;10.434;2023-03-03T04:23:22;50.10;;;17.77;;
73557;SDS011;61829;53.286;10.434;2023-03-03T04:25:48;44.70;;;15.65;;
73557;SDS011;61829;53.286;10.434;2023-03-03T04:28:16;43.67;;;15.27;;
73557;SDS011;61829;53.286;10.434;2023-03-03T04:30:42;41.50;;;14.98;;
73557;SDS011;61829;53.286;10.434;2023-03-03T04:33:08;46.85;;;15.82;;
73557;SDS011;61829;53.286;10.434;2023-03-03T04:35:34;37.72;;;15.20;;
73557;SDS011;61829;53.286;10.434;2023-03-03T04:38:00;48.60;;;15.73;;
73557;SDS011;61829;53.286;10.434;2023-03-03T04:40:26;43.00;;;15.55;;
73557;SDS011;61829;53.286;10.434;2023-03-03T04:42:52;40.60;;;14.85;;
73557;SDS011;61829;53.286;10.434;2023-03-03T04:45:18;43.97;;;15.27;;
73557;SDS011;61829;53.286;10.434;2023-03-03T04:47:43;44.67;;;14.93;;
73557;SDS011;61829;53.286;10.434;2023-03-03T04:50:10;38.33;;;13.57;;
73557;SDS011;61829;53.286;10.434;2023-03-03T04:52:36;43.90;;;15.55;;
73557;SDS011;61829;53.286;10.434;2023-03-03T04:55:02;47.03;;;16.30;;
73557;SDS011;61829;53.286;10.434;2023-03-03T04:57:28;45.33;;;15.57;;
73557;SDS011;61829;53.286;10.434;2023-03-03T04:59:54;49.42;;;16.35;;
73557;SDS011;61829;53.286;10.434;2023-03-03T05:02:20;40.92;;;14.07;;
73557;SDS011;61829;53.286;10.434;2023-03-03T05:04:46;43.53;;;15.13;;
73557;SDS011;61829;53.286;10.434;2023-03-03T05:07:12;40.25;;;14.95;;
73557;SDS011;61829;53.286;10.434;2023-03-03T05:09:38;42.30;;;14.93;;
73557;SDS011;61829;53.286;10.434;2023-03-03T05:12:03;40.17;;;13.65;;
73557;SDS011;61829;53.286;10.434;2023-03-03T05:14:42;43.83;;;14.55;;
73557;SDS011;61829;53.286;10.434;2023-03-03T05:17:08;41.95;;;14.60;;
73557;SDS011;61829;53.286;10.434;2023-03-03T05:19:34;39.65;;;14.15;;
73557;SDS011;61829;53.286;10.434;2023-03-03T05:21:59;38.03;;;14.32;;
73557;SDS011;61829;53.286;10.434;2023-03-03T05:24:26;39.80;;;15.75;;
73557;SDS011;61829;53.286;10.434;2023-03-03T05:26:52;40.92;;;16.33;;
73557;SDS011;61829;53.286;10.434;2023-03-03T05:29:18;38.38;;;14.23;;
73557;SDS011;61829;53.286;10.434;2023-03-03T05:31:44;43.97;;;16.73;;
73557;SDS011;61829;53.286;10.434;2023-03-03T05:34:10;41.17;;;15.18;;
73557;SDS011;61829;53.286;10.434;2023-03-03T05:36:35;42.38;;;15.20;;
73557;SDS011;61829;53.286;10.434;2023-03-03T05:39:02;43.55;;;15.60;;
73557;SDS011;61829;53.286;10.434;2023-03-03T05:41:28;38.30;;;14.52;;
73557;SDS011;61829;53.286;10.434;2023-03-03T05:43:54;42.42;;;15.45;;
73557;SDS011;61829;53.286;10.434;2023-03-03T05:46:20;38.78;;;14.30;;
73557;SDS011;61829;53.286;10.434;2023-03-03T05:48:46;35.95;;;13.50;;
73557;SDS011;61829;53.286;10.434;2023-03-03T05:51:13;36.47;;;13.93;;
73557;SDS011;61829;53.286;10.434;2023-03-03T05:53:39;32.67;;;13.57;;
73557;SDS011;61829;53.286;10.434;2023-03-03T05:56:05;37.28;;;14.80;;
73557;SDS011;61829;53.286;10.434;2023-03-03T05:58:32;33.28;;;13.55;;
73557;SDS011;61829;53.286;10.434;2023-03-03T06:00:57;37.17;;;14.15;;
73557;SDS011;61829;53.286;10.434;2023-03-03T06:03:24;40.08;;;13.98;;
73557;SDS011;61829;53.286;10.434;2023-03-03T06:05:50;33.90;;;12.00;;
73557;SDS011;61829;53.286;10.434;2023-03-03T06:08:16;34.63;;;13.25;;
73557;SDS011;61829;53.286;10.434;2023-03-03T06:10:41;38.42;;;14.70;;
73557;SDS011;61829;53.286;10.434;2023-03-03T06:13:08;35.45;;;12.82;;
73557;SDS011;61829;53.286;10.434;2023-03-03T06:15:33;34.30;;;14.52;;
73557;SDS011;61829;53.286;10.434;2023-03-03T06:17:59;30.85;;;12.85;;
73557;SDS011;61829;53.286;10.434;2023-03-03T06:20:25;35.78;;;13.57;;
73557;SDS011;61829;53.286;10.434;2023-03-03T06:22:51;33.33;;;12.30;;
73557;SDS011;61829;53.286;10.434;2023-03-03T06:25:17;34.03;;;13.32;;
73557;SDS011;61829;53.286;10.434;2023-03-03T06:27:43;33.83;;;12.50;;
73557;SDS011;61829;53.286;10.434;2023-03-03T06:30:09;39.47;;;13.45;;
73557;SDS011;61829;53.286;10.434;2023-03-03T06:32:35;35.08;;;13.65;;
73557;SDS011;61829;53.286;10.434;2023-03-03T06:35:01;35.65;;;12.77;;
73557;SDS011;61829;53.286;10.434;2023-03-03T06:37:27;32.10;;;12.90;;
73557;SDS011;61829;53.286;10.434;2023-03-03T06:39:52;34.50;;;13.85;;
73557;SDS011;61829;53.286;10.434;2023-03-03T06:42:21;32.05;;;12.77;;
73557;SDS011;61829;53.286;10.434;2023-03-03T06:44:49;28.65;;;11.60;;
73557;SDS011;61829;53.286;10.434;2023-03-03T06:47:15;31.90;;;13.50;;
73557;SDS011;61829;53.286;10.434;2023-03-03T06:49:41;32.58;;;12.27;;
73557;SDS011;61829;53.286;10.434;2023-03-03T06:52:28;35.20;;;12.50;;
73557;SDS011;61829;53.286;10.434;2023-03-03T06:54:54;31.33;;;12.68;;
73557;SDS011;61829;53.286;10.434;2023-03-03T06:57:30;39.33;;;13.00;;
73557;SDS011;61829;53.286;10.434;2023-03-03T07:00:22;35.92;;;12.98;;
73557;SDS011;61829;53.286;10.434;2023-03-03T07:02:57;31.20;;;12.32;;
73557;SDS011;61829;53.286;10.434;2023-03-03T07:05:27;32.88;;;12.15;;
73557;SDS011;61829;53.286;10.434;2023-03-03T07:07:56;32.53;;;12.35;;
73557;SDS011;61829;53.286;10.434;2023-03-03T07:12:52;35.70;;;13.68;;
73557;SDS011;61829;53.286;10.434;2023-03-03T07:15:25;36.53;;;12.77;;
73557;SDS011;61829;53.286;10.434;2023-03-03T07:17:58;30.98;;;11.45;;
73557;SDS011;61829;53.286;10.434;2023-03-03T07:20:57;33.40;;;12.52;;
73557;SDS011;61829;53.286;10.434;2023-03-03T07:25:48;39.70;;;13.75;;
73557;SDS011;61829;53.286;10.434;2023-03-03T07:30:47;27.02;;;11.48;;
73557;SDS011;61829;53.286;10.434;2023-03-03T07:35:53;27.77;;;11.70;;
73557;SDS011;61829;53.286;10.434;2023-03-03T07:41:02;27.67;;;11.27;;
73557;SDS011;61829;53.286;10.434;2023-03-03T07:43:53;29.70;;;11.90;;
73557;SDS011;61829;53.286;10.434;2023-03-03T07:46:48;28.83;;;10.63;;
73557;SDS011;61829;53.286;10.434;2023-03-03T07:51:44;27.55;;;11.40;;
73557;SDS011;61829;53.286;10.434;2023-03-03T07:56:54;30.08;;;11.90;;
73557;SDS011;61829;53.286;10.434;2023-03-03T07:59:40;29.10;;;11.32;;
73557;SDS011;61829;53.286;10.434;2023-03-03T08:10:51;25.02;;;10.70;;
73557;SDS011;61829;53.286;10.434;2023-03-03T08:13:28;21.98;;;9.80;;
73557;SDS011;61829;53.286;10.434;2023-03-03T08:18:48;28.85;;;11.52;;
73557;SDS011;61829;53.286;10.434;2023-03-03T08:21:23;24.33;;;11.18;;
73557;SDS011;61829;53.286;10.434;2023-03-03T08:23:50;24.40;;;11.40;;
73557;SDS011;61829;53.286;10.434;2023-03-03T08:26:18;27.67;;;11.52;;
73557;SDS011;61829;53.286;10.434;2023-03-03T08:28:46;29.50;;;11.55;;
73557;SDS011;61829;53.286;10.434;2023-03-03T08:31:13;23.92;;;11.30;;
73557;SDS011;61829;53.286;10.434;2023-03-03T08:33:39;24.63;;;9.82;;
73557;SDS011;61829;53.286;10.434;2023-03-03T08:36:06;28.00;;;11.45;;
73557;SDS011;61829;53.286;10.434;2023-03-03T08:38:32;26.35;;;11.07;;
73557;SDS011;61829;53.286;10.434;2023-03-03T08:40:58;24.15;;;10.60;;
73557;SDS011;61829;53.286;10.434;2023-03-03T08:43:24;21.63;;;9.80;;
73557;SDS011;61829;53.286;10.434;2023-03-03T08:45:52;27.75;;;11.13;;
73557;SDS011;61829;53.286;10.434;2023-03-03T08:48:25;24.50;;;9.93;;
73557;SDS011;61829;53.286;10.434;2023-03-03T08:50:52;26.70;;;10.73;;
73557;SDS011;61829;53.286;10.434;2023-03-03T08:53:18;24.83;;;11.57;;
73557;SDS011;61829;53.286;10.434;2023-03-03T08:55:45;24.58;;;10.32;;
73557;SDS011;61829;53.286;10.434;2023-03-03T08:58:12;21.35;;;9.63;;
73557;SDS011;61829;53.286;10.434;2023-03-03T09:03:05;22.48;;;8.88;;
73557;SDS011;61829;53.286;10.434;2023-03-03T09:05:37;20.02;;;9.32;;
73557;SDS011;61829;53.286;10.434;2023-03-03T09:08:04;22.58;;;9.68;;
73557;SDS011;61829;53.286;10.434;2023-03-03T09:12:59;22.83;;;9.65;;
73557;SDS011;61829;53.286;10.434;2023-03-03T09:15:30;22.25;;;8.80;;
73557;SDS011;61829;53.286;10.434;2023-03-03T09:18:19;19.88;;;9.05;;
73557;SDS011;61829;53.286;10.434;2023-03-03T09:20:49;21.65;;;9.65;;
73557;SDS011;61829;53.286;10.434;2023-03-03T09:34:41;21.67;;;8.13;;
73557;SDS011;61829;53.286;10.434;2023-03-03T09:37:16;17.85;;;8.27;;
73557;SDS011;61829;53.286;10.434;2023-03-03T09:39:58;21.05;;;8.90;;
73557;SDS011;61829;53.286;10.434;2023-03-03T10:07:26;21.55;;;8.70;;
73557;SDS011;61829;53.286;10.434;2023-03-03T10:10:22;20.60;;;7.80;;
73557;SDS011;61829;53.286;10.434;2023-03-03T10:21:13;14.93;;;7.85;;
73557;SDS011;61829;53.286;10.434;2023-03-03T10:29:28;16.58;;;7.25;;
73557;SDS011;61829;53.286;10.434;2023-03-03T10:46:17;13.48;;;6.90;;
73557;SDS011;61829;53.286;10.434;2023-03-03T10:54:29;13.18;;;6.55;;
73557;SDS011;61829;53.286;10.434;2023-03-03T11:10:34;14.60;;;6.70;;
73557;SDS011;61829;53.286;10.434;2023-03-03T11:13:35;11.65;;;5.47;;
73557;SDS011;61829;53.286;10.434;2023-03-03T11:19:01;11.77;;;5.78;;
73557;SDS011;61829;53.286;10.434;2023-03-03T11:32:41;12.95;;;5.57;;
73557;SDS011;61829;53.286;10.434;2023-03-03T11:40:31;10.88;;;5.30;;
73557;SDS011;61829;53.286;10.434;2023-03-03T11:43:14;11.75;;;5.78;;
73557;SDS011;61829;53.286;10.434;2023-03-03T11:45:47;11.13;;;6.00;;
73557;SDS011;61829;53.286;10.434;2023-03-03T11:59:55;13.27;;;5.25;;
73557;SDS011;61829;53.286;10.434;2023-03-03T12:05:14;11.07;;;5.75;;
73557;SDS011;61829;53.286;10.434;2023-03-03T12:13:02;14.07;;;6.57;;
73557;SDS011;61829;53.286;10.434;2023-03-03T12:21:09;11.65;;;5.60;;
73557;SDS011;61829;53.286;10.434;2023-03-03T12:26:25;13.13;;;5.65;;
73557;SDS011;61829;53.286;10.434;2023-03-03T12:31:56;14.45;;;6.00;;
73557;SDS011;61829;53.286;10.434;2023-03-03T12:34:57;12.13;;;5.97;;
73557;SDS011;61829;53.286;10.434;2023-03-03T12:40:35;12.25;;;4.90;;
73557;SDS011;61829;53.286;10.434;2023-03-03T12:48:37;10.55;;;4.75;;
73557;SDS011;61829;53.286;10.434;2023-03-03T12:51:09;16.23;;;8.45;;
73557;SDS011;61829;53.286;10.434;2023-03-03T12:56:57;7.85;;;4.15;;
73557;SDS011;61829;53.286;10.434;2023-03-03T13:13:16;10.32;;;3.70;;
73557;SDS011;61829;53.286;10.434;2023-03-03T13:16:01;9.23;;;4.13;;
73557;SDS011;61829;53.286;10.434;2023-03-03T13:26:55;8.02;;;3.90;;
73557;SDS011;61829;53.286;10.434;2023-03-03T13:29:29;8.30;;;4.07;;
73557;SDS011;61829;53.286;10.434;2023-03-03T13:32:19;9.40;;;3.90;;
73557;SDS011;61829;53.286;10.434;2023-03-03T13:40:14;8.50;;;3.50;;
73557;SDS011;61829;53.286;10.434;2023-03-03T13:42:51;6.88;;;3.60;;
73557;SDS011;61829;53.286;10.434;2023-03-03T13:48:36;8.52;;;3.30;;
73557;SDS011;61829;53.286;10.434;2023-03-03T14:05:35;10.18;;;3.33;;
73557;SDS011;61829;53.286;10.434;2023-03-03T14:10:33;8.48;;;3.47;;
73557;SDS011;61829;53.286;10.434;2023-03-03T14:13:22;8.60;;;4.00;;
73557;SDS011;61829;53.286;10.434;2023-03-03T14:15:55;9.43;;;3.80;;
73557;SDS011;61829;53.286;10.434;2023-03-03T14:20:57;9.90;;;3.67;;
73557;SDS011;61829;53.286;10.434;2023-03-03T14:26:24;9.18;;;3.47;;
73557;SDS011;61829;53.286;10.434;2023-03-03T14:28:50;6.40;;;3.22;;
73557;SDS011;61829;53.286;10.434;2023-03-03T14:31:28;7.32;;;3.22;;
73557;SDS011;61829;53.286;10.434;2023-03-03T14:34:13;7.72;;;3.80;;
73557;SDS011;61829;53.286;10.434;2023-03-03T14:37:17;7.07;;;3.00;;
73557;SDS011;61829;53.286;10.434;2023-03-03T14:39:47;8.27;;;3.30;;
73557;SDS011;61829;53.286;10.434;2023-03-03T14:42:30;6.43;;;2.95;;
73557;SDS011;61829;53.286;10.434;2023-03-03T14:48:23;6.47;;;2.92;;
73557;SDS011;61829;53.286;10.434;2023-03-03T14:55:44;8.05;;;3.05;;
73557;SDS011;61829;53.286;10.434;2023-03-03T14:58:22;7.80;;;3.10;;
73557;SDS011;61829;53.286;10.434;2023-03-03T15:04:35;5.85;;;3.08;;
73557;SDS011;61829;53.286;10.434;2023-03-03T15:07:14;5.75;;;3.00;;
73557;SDS011;61829;53.286;10.434;2023-03-03T15:09:56;6.22;;;2.78;;
73557;SDS011;61829;53.286;10.434;2023-03-03T15:12:23;6.13;;;2.75;;
73557;SDS011;61829;53.286;10.434;2023-03-03T15:15:09;8.25;;;2.72;;
73557;SDS011;61829;53.286;10.434;2023-03-03T15:17:52;7.55;;;3.45;;
73557;SDS011;61829;53.286;10.434;2023-03-03T15:50:00;6.03;;;2.38;;
73557;SDS011;61829;53.286;10.434;2023-03-03T15:55:38;5.22;;;2.33;;
73557;SDS011;61829;53.286;10.434;2023-03-03T16:03:45;5.10;;;2.38;;
73557;SDS011;61829;53.286;10.434;2023-03-03T16:08:47;4.32;;;2.67;;
73557;SDS011;61829;53.286;10.434;2023-03-03T16:22:23;3.08;;;1.77;;
73557;SDS011;61829;53.286;10.434;2023-03-03T16:25:04;4.38;;;1.67;;
73557;SDS011;61829;53.286;10.434;2023-03-03T16:30:58;4.65;;;1.85;;
73557;SDS011;61829;53.286;10.434;2023-03-03T16:33:36;3.50;;;1.98;;
73557;SDS011;61829;53.286;10.434;2023-03-03T16:47:28;3.55;;;1.85;;
73557;SDS011;61829;53.286;10.434;2023-03-03T16:50:18;6.95;;;2.40;;
73557;SDS011;61829;53.286;10.434;2023-03-03T17:04:20;5.15;;;1.67;;
73557;SDS011;61829;53.286;10.434;2023-03-03T17:18:25;4.03;;;2.20;;
73557;SDS011;61829;53.286;10.434;2023-03-03T17:21:06;4.45;;;2.20;;
73557;SDS011;61829;53.286;10.434;2023-03-03T17:45:22;6.13;;;3.20;;
73557;SDS011;61829;53.286;10.434;2023-03-03T18:12:17;7.35;;;2.35;;
73557;SDS011;61829;53.286;10.434;2023-03-03T18:15:12;3.63;;;2.47;;
73557;SDS011;61829;53.286;10.434;2023-03-03T18:20:39;9.05;;;2.90;;
73557;SDS011;61829;53.286;10.434;2023-03-03T18:23:21;6.35;;;2.53;;
73557;SDS011;61829;53.286;10.434;2023-03-03T18:31:30;6.38;;;2.47;;
73557;SDS011;61829;53.286;10.434;2023-03-03T18:36:56;6.13;;;1.98;;
73557;SDS011;61829;53.286;10.434;2023-03-03T18:44:40;10.20;;;2.53;;
73557;SDS011;61829;53.286;10.434;2023-03-03T18:47:07;10.30;;;2.05;;
73557;SDS011;61829;53.286;10.434;2023-03-03T18:52:16;13.93;;;2.28;;
73557;SDS011;61829;53.286;10.434;2023-03-03T18:55:29;9.90;;;2.10;;
73557;SDS011;61829;53.286;10.434;2023-03-03T18:57:37;18.23;;;2.45;;
73557;SDS011;61829;53.286;10.434;2023-03-03T19:00:20;10.75;;;1.88;;
73557;SDS011;61829;53.286;10.434;2023-03-03T19:02:56;7.20;;;1.85;;
73557;SDS011;61829;53.286;10.434;2023-03-03T19:05:35;5.75;;;1.58;;
73557;SDS011;61829;53.286;10.434;2023-03-03T19:08:20;13.57;;;1.73;;
73557;SDS011;61829;53.286;10.434;2023-03-03T19:15:57;7.95;;;2.45;;
73557;SDS011;61829;53.286;10.434;2023-03-03T19:18:27;11.45;;;2.55;;
73557;SDS011;61829;53.286;10.434;2023-03-03T19:20:56;13.40;;;2.28;;
73557;SDS011;61829;53.286;10.434;2023-03-03T19:28:47;9.15;;;2.22;;
73557;SDS011;61829;53.286;10.434;2023-03-03T19:45:21;12.45;;;2.20;;
73557;SDS011;61829;53.286;10.434;2023-03-03T19:48:05;8.00;;;1.83;;
73557;SDS011;61829;53.286;10.434;2023-03-03T19:56:49;14.82;;;2.45;;
73557;SDS011;61829;53.286;10.434;2023-03-03T19:59:34;14.35;;;2.83;;
73557;SDS011;61829;53.286;10.434;2023-03-03T20:07:27;10.98;;;2.20;;
73557;SDS011;61829;53.286;10.434;2023-03-03T20:15:19;8.77;;;2.30;;
73557;SDS011;61829;53.286;10.434;2023-03-03T20:18:07;15.68;;;2.58;;
73557;SDS011;61829;53.286;10.434;2023-03-03T20:20:58;11.88;;;2.25;;
73557;SDS011;61829;53.286;10.434;2023-03-03T20:23:53;9.48;;;2.15;;
73557;SDS011;61829;53.286;10.434;2023-03-03T20:26:58;12.75;;;2.60;;
73557;SDS011;61829;53.286;10.434;2023-03-03T20:32:07;19.65;;;2.67;;
73557;SDS011;61829;53.286;10.434;2023-03-03T20:37:38;13.18;;;2.28;;
73557;SDS011;61829;53.286;10.434;2023-03-03T20:40:49;12.32;;;2.78;;
73557;SDS011;61829;53.286;10.434;2023-03-03T20:48:52;10.32;;;2.55;;
73557;SDS011;61829;53.286;10.434;2023-03-03T20:59:53;14.57;;;2.55;;
73557;SDS011;61829;53.286;10.434;2023-03-03T21:05:17;13.55;;;2.70;;
73557;SDS011;61829;53.286;10.434;2023-03-03T21:07:51;12.93;;;2.92;;
73557;SDS011;61829;53.286;10.434;2023-03-03T21:10:28;18.55;;;2.75;;
73557;SDS011;61829;53.286;10.434;2023-03-03T21:13:20;22.40;;;3.15;;
73557;SDS011;61829;53.286;10.434;2023-03-03T21:22:01;15.23;;;2.83;;
73557;SDS011;61829;53.286;10.434;2023-03-03T21:24:48;12.75;;;1.80;;
73557;SDS011;61829;53.286;10.434;2023-03-03T21:27:23;12.35;;;2.83;;
73557;SDS011;61829;53.286;10.434;2023-03-03T21:32:36;14.35;;;2.40;;
73557;SDS011;61829;53.286;10.434;2023-03-03T21:35:13;12.55;;;2.42;;
73557;SDS011;61829;53.286;10.434;2023-03-03T21:40:27;16.33;;;2.45;;
73557;SDS011;61829;53.286;10.434;2023-03-03T21:42:55;9.70;;;2.25;;
73557;SDS011;61829;53.286;10.434;2023-03-03T21:45:23;13.18;;;2.42;;
73557;SDS011;61829;53.286;10.434;2023-03-03T21:47:50;11.77;;;2.13;;
73557;SDS011;61829;53.286;10.434;2023-03-03T21:50:19;16.33;;;2.53;;
73557;SDS011;61829;53.286;10.434;2023-03-03T21:52:48;17.20;;;2.25;;
73557;SDS011;61829;53.286;10.434;2023-03-03T21:55:14;16.73;;;2.50;;
73557;SDS011;61829;53.286;10.434;2023-03-03T21:57:40;10.80;;;2.70;;
73557;SDS011;61829;53.286;10.434;2023-03-03T22:00:06;13.23;;;2.53;;
73557;SDS011;61829;53.286;10.434;2023-03-03T22:02:33;14.80;;;2.47;;
73557;SDS011;61829;53.286;10.434;2023-03-03T22:05:02;18.67;;;2.35;;
73557;SDS011;61829;53.286;10.434;2023-03-03T22:07:31;15.27;;;2.20;;
73557;SDS011;61829;53.286;10.434;2023-03-03T22:09:57;6.93;;;2.35;;
73557;SDS011;61829;53.286;10.434;2023-03-03T22:12:23;9.35;;;2.22;;
73557;SDS011;61829;53.286;10.434;2023-03-03T22:14:49;14.38;;;2.60;;
73557;SDS011;61829;53.286;10.434;2023-03-03T22:17:14;10.70;;;2.35;;
73557;SDS011;61829;53.286;10.434;2023-03-03T22:19:41;10.48;;;2.55;;
73557;SDS011;61829;53.286;10.434;2023-03-03T22:22:07;17.88;;;3.45;;
73557;SDS011;61829;53.286;10.434;2023-03-03T22:24:33;17.80;;;3.60;;
73557;SDS011;61829;53.286;10.434;2023-03-03T22:26:59;11.10;;;2.47;;
73557;SDS011;61829;53.286;10.434;2023-03-03T22:29:25;14.43;;;2.38;;
73557;SDS011;61829;53.286;10.434;2023-03-03T22:31:51;15.65;;;2.42;;
73557;SDS011;61829;53.286;10.434;2023-03-03T22:34:17;13.05;;;2.53;;
73557;SDS011;61829;53.286;10.434;2023-03-03T22:36:43;12.23;;;2.63;;
73557;SDS011;61829;53.286;10.434;2023-03-03T22:39:10;17.23;;;2.50;;
73557;SDS011;61829;53.286;10.434;2023-03-03T22:41:36;10.32;;;2.80;;
73557;SDS011;61829;53.286;10.434;2023-03-03T22:44:02;9.55;;;1.90;;
73557;SDS011;61829;53.286;10.434;2023-03-03T22:46:28;8.48;;;2.00;;
73557;SDS011;61829;53.286;10.434;2023-03-03T22:48:54;12.45;;;1.98;;
73557;SDS011;61829;53.286;10.434;2023-03-03T22:51:20;11.98;;;2.08;;
73557;SDS011;61829;53.286;10.434;2023-03-03T22:53:47;16.98;;;2.45;;
73557;SDS011;61829;53.286;10.434;2023-03-03T22:56:13;12.18;;;2.00;;
73557;SDS011;61829;53.286;10.434;2023-03-03T22:58:39;11.95;;;2.35;;
73557;SDS011;61829;53.286;10.434;2023-03-03T23:01:05;10.98;;;2.85;;